createdAt,value
2023-12-31T00:02:58.032Z,105.67
2023-12-31T00:06:04.614Z,74.70
2023-12-31T00:09:11.460Z,66.43
2023-12-31T00:12:18.058Z,107.63
2023-12-31T00:15:24.718Z,86.27
2023-12-31T00:18:32.607Z,73.20
2023-12-31T00:21:44.369Z,76.33
2023-12-31T00:24:52.478Z,71.80
2023-12-31T00:27:59.148Z,65.63
2023-12-31T00:31:05.643Z,55.13
2023-12-31T00:34:13.709Z,43.13
2023-12-31T00:37:20.327Z,36.90
2023-12-31T00:40:27.057Z,77.50
2023-12-31T00:43:33.952Z,80.10
2023-12-31T00:46:40.350Z,78.90
2023-12-31T00:49:48.186Z,96.80
2023-12-31T00:52:55.107Z,119.43
2023-12-31T00:56:01.822Z,105.67
2023-12-31T00:59:09.028Z,96.50
2023-12-31T01:02:16.026Z,91.40
2023-12-31T01:05:23.849Z,60.90
2023-12-31T01:08:30.097Z,68.93
2023-12-31T01:11:36.605Z,47.13
2023-12-31T01:14:42.897Z,45.73
2023-12-31T01:17:49.129Z,46.87
2023-12-31T01:20:56.849Z,101.57
2023-12-31T01:24:04.644Z,112.57
2023-12-31T01:27:11.036Z,84.47
2023-12-31T01:30:17.650Z,67.03
2023-12-31T01:33:24.142Z,65.53
2023-12-31T01:36:32.108Z,69.10
2023-12-31T01:39:38.990Z,78.10
2023-12-31T01:42:47.219Z,86.97
2023-12-31T01:45:53.747Z,67.60
2023-12-31T01:49:00.948Z,112.07
2023-12-31T01:52:09.165Z,88.50
2023-12-31T01:55:17.065Z,96.03
2023-12-31T01:58:24.590Z,89.60
2023-12-31T02:01:32.274Z,95.77
2023-12-31T02:04:39.065Z,83.20
2023-12-31T02:07:47.145Z,75.57
2023-12-31T02:10:54.141Z,63.80
2023-12-31T02:14:00.741Z,67.03
2023-12-31T02:17:07.399Z,53.53
2023-12-31T02:20:14.248Z,59.50
2023-12-31T02:23:22.318Z,62.17
2023-12-31T02:26:31.420Z,55.43
2023-12-31T02:29:38.037Z,46.17
2023-12-31T02:32:44.689Z,55.67
2023-12-31T02:35:51.368Z,50.70
2023-12-31T02:38:57.893Z,52.43
2023-12-31T02:42:06.969Z,68.17
2023-12-31T02:45:13.481Z,82.00
2023-12-31T02:48:20.417Z,65.90
2023-12-31T02:51:27.031Z,50.10
2023-12-31T02:54:33.358Z,47.53
2023-12-31T02:57:41.510Z,48.43
2023-12-31T03:00:47.892Z,44.40
2023-12-31T03:03:54.652Z,51.77
2023-12-31T03:07:01.048Z,56.77
2023-12-31T03:10:08.952Z,54.20
2023-12-31T03:13:17.604Z,53.40
2023-12-31T03:16:26.323Z,55.63
2023-12-31T03:19:37.118Z,53.50
2023-12-31T03:22:43.362Z,59.53
2023-12-31T03:25:49.703Z,69.80
2023-12-31T03:28:57.682Z,106.70
2023-12-31T03:32:04.188Z,98.60
2023-12-31T03:35:10.679Z,66.53
2023-12-31T03:38:17.153Z,51.27
2023-12-31T03:41:23.525Z,57.27
2023-12-31T03:44:31.410Z,54.67
2023-12-31T03:47:38.259Z,56.83
2023-12-31T03:50:44.736Z,61.87
2023-12-31T03:53:51.614Z,62.70
2023-12-31T03:56:58.040Z,69.23
2023-12-31T04:00:07.323Z,74.30
2023-12-31T04:03:13.860Z,68.77
2023-12-31T04:06:20.081Z,69.23
2023-12-31T04:09:26.321Z,73.83
2023-12-31T04:12:32.743Z,74.63
2023-12-31T04:15:40.430Z,54.43
2023-12-31T04:18:47.016Z,53.90
2023-12-31T04:21:53.860Z,52.50
2023-12-31T04:25:00.482Z,51.47
2023-12-31T04:28:07.111Z,65.07
2023-12-31T04:31:15.239Z,53.13
2023-12-31T04:34:21.962Z,44.80
2023-12-31T04:37:28.517Z,52.97
2023-12-31T04:40:35.303Z,62.33
2023-12-31T04:43:41.827Z,56.23
2023-12-31T04:46:49.985Z,55.07
2023-12-31T04:49:56.755Z,64.03
2023-12-31T04:53:03.729Z,62.80
2023-12-31T04:56:20.612Z,83.90
2023-12-31T04:59:26.901Z,66.47
2023-12-31T05:02:34.846Z,74.87
2023-12-31T05:05:41.733Z,73.53
2023-12-31T05:08:48.803Z,67.97
2023-12-31T05:11:55.502Z,71.77
2023-12-31T05:15:02.122Z,67.83
2023-12-31T05:18:09.860Z,69.33
2023-12-31T05:21:16.561Z,71.73
2023-12-31T05:24:23.829Z,80.27
2023-12-31T05:27:30.111Z,70.93
2023-12-31T05:30:36.861Z,72.50
2023-12-31T05:33:45.310Z,93.70
2023-12-31T05:36:52.889Z,83.27
2023-12-31T05:39:59.319Z,104.87
2023-12-31T05:43:06.486Z,108.60
2023-12-31T05:46:13.006Z,89.13
2023-12-31T05:49:21.081Z,112.93
2023-12-31T05:52:27.867Z,147.70
2023-12-31T05:55:34.455Z,144.50
2023-12-31T05:58:43.688Z,163.40
2023-12-31T06:01:50.932Z,75.50
2023-12-31T06:04:59.219Z,100.93
2023-12-31T06:08:05.842Z,110.27
2023-12-31T06:11:12.417Z,120.47
2023-12-31T06:14:18.512Z,114.83
2023-12-31T06:17:24.849Z,121.37
2023-12-31T06:20:32.916Z,138.23
2023-12-31T06:23:39.795Z,145.03
2023-12-31T06:26:46.517Z,122.60
2023-12-31T06:29:53.705Z,102.77
2023-12-31T06:33:00.090Z,100.97
2023-12-31T06:36:09.319Z,109.73
2023-12-31T06:39:17.013Z,105.97
2023-12-31T06:45:47.885Z,156.60
2023-12-31T06:48:54.365Z,151.23
2023-12-31T06:52:02.371Z,239.13
2023-12-31T06:55:11.911Z,214.33
2023-12-31T06:58:18.636Z,221.00
2023-12-31T07:01:25.487Z,222.93
2023-12-31T07:04:32.790Z,204.80
2023-12-31T07:07:41.975Z,123.57
2023-12-31T07:10:48.796Z,163.40
2023-12-31T07:13:56.026Z,127.00
2023-12-31T07:17:03.604Z,115.53
2023-12-31T07:20:10.889Z,129.50
2023-12-31T07:23:19.226Z,332.93
2023-12-31T07:26:27.188Z,216.30
2023-12-31T07:29:34.280Z,162.37
2023-12-31T07:32:40.910Z,157.37
2023-12-31T07:35:47.350Z,205.10
2023-12-31T07:38:55.938Z,106.70
2023-12-31T07:42:02.437Z,195.80
2023-12-31T07:45:10.590Z,122.97
2023-12-31T07:48:17.260Z,161.53
2023-12-31T07:51:23.739Z,185.87
2023-12-31T07:54:31.930Z,152.20
2023-12-31T07:57:38.519Z,130.50
2023-12-31T08:00:45.050Z,159.20
2023-12-31T08:03:52.257Z,143.73
2023-12-31T08:06:58.549Z,141.97
2023-12-31T08:10:07.031Z,135.13
2023-12-31T08:13:13.731Z,132.47
2023-12-31T08:16:20.780Z,88.20
2023-12-31T08:19:27.765Z,104.93
2023-12-31T08:22:34.307Z,137.97
2023-12-31T08:25:43.101Z,124.97
2023-12-31T08:28:49.595Z,108.60
2023-12-31T08:31:57.390Z,54.37
2023-12-31T08:35:03.817Z,61.63
2023-12-31T08:38:10.238Z,68.27
2023-12-31T08:41:17.909Z,79.07
2023-12-31T08:44:24.764Z,108.63
2023-12-31T08:47:30.965Z,62.00
2023-12-31T08:50:37.520Z,83.30
2023-12-31T08:53:44.868Z,77.60
2023-12-31T08:56:52.837Z,80.40
2023-12-31T08:59:58.978Z,88.57
2023-12-31T09:03:05.890Z,78.70
2023-12-31T09:06:12.978Z,146.83
2023-12-31T09:09:19.263Z,117.10
2023-12-31T09:12:27.602Z,119.10
2023-12-31T09:15:33.931Z,77.50
2023-12-31T09:18:40.502Z,104.67
2023-12-31T09:21:47.132Z,110.63
2023-12-31T09:24:54.442Z,101.27
2023-12-31T09:28:02.102Z,73.07
2023-12-31T09:31:08.577Z,86.03
2023-12-31T09:34:15.165Z,80.37
2023-12-31T09:37:22.325Z,82.67
2023-12-31T09:40:28.895Z,124.90
2023-12-31T09:43:39.853Z,123.13
2023-12-31T09:47:06.050Z,118.80
2023-12-31T09:50:17.481Z,118.33
2023-12-31T09:53:25.808Z,120.73
2023-12-31T09:56:34.774Z,121.70
2023-12-31T09:59:43.317Z,103.50
2023-12-31T10:02:52.679Z,108.67
2023-12-31T10:05:59.739Z,120.47
2023-12-31T10:09:08.622Z,93.83
2023-12-31T10:12:15.886Z,97.17
2023-12-31T10:15:23.982Z,82.90
2023-12-31T10:18:32.324Z,71.47
2023-12-31T10:21:39.126Z,76.83
2023-12-31T10:24:46.785Z,91.33
2023-12-31T10:27:53.680Z,110.60
2023-12-31T10:31:02.220Z,124.80
2023-12-31T10:34:19.097Z,187.33
2023-12-31T10:37:25.858Z,205.80
2023-12-31T10:40:32.289Z,161.23
2023-12-31T10:43:42.223Z,85.23
2023-12-31T10:46:54.814Z,105.17
2023-12-31T10:50:02.237Z,145.23
2023-12-31T10:53:13.232Z,147.83
2023-12-31T10:56:20.328Z,148.63
2023-12-31T10:59:28.476Z,181.77
2023-12-31T11:02:36.582Z,178.80
2023-12-31T11:05:45.541Z,218.97
2023-12-31T11:08:52.236Z,183.03
2023-12-31T11:11:58.810Z,186.80
2023-12-31T11:15:10.472Z,250.10
2023-12-31T11:18:40.461Z,165.67
2023-12-31T11:22:03.836Z,171.80
2023-12-31T11:25:10.215Z,159.83
2023-12-31T11:28:18.692Z,201.90
2023-12-31T11:31:27.091Z,143.47
2023-12-31T11:34:41.096Z,148.87
2023-12-31T11:37:47.543Z,114.17
2023-12-31T11:40:56.368Z,88.10
2023-12-31T11:44:03.041Z,64.67
2023-12-31T11:47:14.812Z,54.80
2023-12-31T11:50:25.841Z,31.20
2023-12-31T11:53:50.088Z,28.47
2023-12-31T11:56:56.979Z,40.23
2023-12-31T12:00:08.067Z,54.57
2023-12-31T12:03:16.190Z,49.87
2023-12-31T12:06:25.737Z,31.00
2023-12-31T12:09:33.022Z,43.90
2023-12-31T12:12:39.656Z,43.90
2023-12-31T12:15:46.234Z,77.43
2023-12-31T12:19:00.686Z,39.67
2023-12-31T12:22:08.908Z,35.20
2023-12-31T12:25:15.465Z,37.00
2023-12-31T12:28:22.507Z,33.13
2023-12-31T12:31:36.843Z,34.23
2023-12-31T12:34:47.519Z,51.33
2023-12-31T12:37:55.826Z,40.83
2023-12-31T12:41:03.954Z,67.33
2023-12-31T12:44:11.652Z,50.70
2023-12-31T12:47:19.054Z,67.10
2023-12-31T12:50:27.659Z,68.77
2023-12-31T12:53:35.278Z,58.30
2023-12-31T12:56:42.030Z,59.33
2023-12-31T12:59:48.645Z,68.67
2023-12-31T13:02:55.251Z,59.70
2023-12-31T13:06:02.550Z,65.87
2023-12-31T13:09:12.623Z,48.37
2023-12-31T13:12:19.543Z,36.50
2023-12-31T13:15:25.835Z,35.80
2023-12-31T13:18:32.150Z,40.67
2023-12-31T13:21:39.502Z,39.77
2023-12-31T13:24:47.105Z,52.83
2023-12-31T13:27:53.706Z,62.70
2023-12-31T13:31:02.225Z,69.13
2023-12-31T13:34:10.772Z,70.90
2023-12-31T13:37:17.371Z,49.73
2023-12-31T13:40:25.459Z,31.70
2023-12-31T13:43:32.136Z,45.90
2023-12-31T13:46:38.562Z,59.80
2023-12-31T13:49:45.148Z,60.67
2023-12-31T13:52:51.823Z,68.97
2023-12-31T13:55:59.972Z,80.23
2023-12-31T13:59:06.742Z,52.60
2023-12-31T14:02:14.050Z,42.03
2023-12-31T14:05:20.374Z,57.33
2023-12-31T14:08:26.875Z,61.93
2023-12-31T14:11:34.978Z,105.77
2023-12-31T14:14:41.747Z,60.97
2023-12-31T14:17:48.362Z,47.20
2023-12-31T14:20:56.363Z,88.93
2023-12-31T14:24:03.678Z,148.77
2023-12-31T14:27:11.732Z,164.13
2023-12-31T14:30:18.552Z,155.90
2023-12-31T14:33:25.285Z,126.53
2023-12-31T14:36:33.040Z,121.27
2023-12-31T14:39:39.731Z,107.93
2023-12-31T14:42:47.938Z,128.70
2023-12-31T14:45:54.552Z,110.40
2023-12-31T14:49:04.153Z,94.03
2023-12-31T14:52:12.642Z,99.80
2023-12-31T14:55:21.063Z,100.33
2023-12-31T14:58:29.122Z,109.00
2023-12-31T15:01:35.789Z,109.60
2023-12-31T15:04:42.693Z,128.43
2023-12-31T15:07:49.499Z,85.33
2023-12-31T15:10:56.178Z,75.23
2023-12-31T15:14:05.489Z,91.37
2023-12-31T15:17:12.476Z,82.23
2023-12-31T15:20:19.070Z,88.47
2023-12-31T15:23:25.742Z,101.53
2023-12-31T15:26:33.261Z,236.53
2023-12-31T15:29:41.565Z,432.03
2023-12-31T15:32:48.333Z,373.57
2023-12-31T15:35:54.939Z,1306.27
2023-12-31T15:39:01.843Z,418.43
2023-12-31T15:42:08.594Z,136.20
2023-12-31T15:45:16.720Z,190.43
2023-12-31T15:48:23.605Z,208.33
2023-12-31T15:51:30.893Z,178.67
2023-12-31T15:54:37.506Z,98.07
2023-12-31T15:57:43.852Z,160.93
2023-12-31T16:00:51.940Z,98.50
2023-12-31T16:03:58.326Z,123.67
2023-12-31T16:07:04.736Z,144.50
2023-12-31T16:10:11.939Z,127.00
2023-12-31T16:13:18.622Z,137.93
2023-12-31T16:16:26.732Z,136.47
2023-12-31T16:19:33.362Z,135.43
2023-12-31T16:22:39.857Z,170.10
2023-12-31T16:25:46.259Z,127.23
2023-12-31T16:28:53.349Z,129.97
2023-12-31T16:32:01.104Z,138.20
2023-12-31T16:35:10.711Z,105.50
2023-12-31T16:38:17.390Z,57.60
2023-12-31T16:41:25.778Z,51.87
2023-12-31T16:44:32.523Z,68.33
2023-12-31T16:47:41.598Z,57.87
2023-12-31T16:50:48.091Z,67.57
2023-12-31T16:53:59.757Z,80.43
2023-12-31T16:57:06.719Z,82.50
2023-12-31T17:00:13.927Z,74.97
2023-12-31T17:03:21.914Z,68.67
2023-12-31T17:06:29.223Z,66.33
2023-12-31T17:09:36.543Z,77.43
2023-12-31T17:12:43.221Z,91.73
2023-12-31T17:15:49.728Z,146.00
2023-12-31T17:18:57.881Z,226.83
2023-12-31T17:22:04.494Z,142.17
2023-12-31T17:25:11.458Z,130.17
2023-12-31T17:28:18.002Z,135.07
2023-12-31T17:31:24.929Z,157.40
2023-12-31T17:34:32.894Z,151.80
2023-12-31T17:37:39.729Z,251.30
2023-12-31T17:40:46.370Z,178.23
2023-12-31T17:43:53.330Z,156.83
2023-12-31T17:47:00.329Z,170.43
2023-12-31T17:50:09.394Z,190.63
2023-12-31T17:53:15.830Z,177.40
2023-12-31T17:56:22.791Z,163.43
2023-12-31T17:59:29.616Z,172.80
2023-12-31T18:02:36.097Z,141.53
2023-12-31T18:05:44.315Z,141.73
2023-12-31T18:08:50.700Z,99.43
2023-12-31T18:11:57.219Z,159.70
2023-12-31T18:15:04.002Z,159.03
2023-12-31T18:18:11.093Z,167.23
2023-12-31T18:21:19.202Z,140.73
2023-12-31T18:24:25.802Z,136.03
2023-12-31T18:27:32.231Z,154.30
2023-12-31T18:30:44.826Z,118.07
2023-12-31T18:33:54.194Z,128.97
2023-12-31T18:37:02.405Z,129.13
2023-12-31T18:40:10.400Z,107.97
2023-12-31T18:43:16.759Z,147.03
2023-12-31T18:46:25.666Z,145.97
2023-12-31T18:49:32.605Z,174.67
2023-12-31T18:52:40.503Z,128.10
2023-12-31T18:55:47.091Z,195.57
2023-12-31T18:58:53.672Z,164.53
2023-12-31T19:02:00.252Z,167.30
2023-12-31T19:05:07.152Z,139.00
2023-12-31T19:08:15.935Z,77.63
2023-12-31T19:11:23.848Z,126.53
2023-12-31T19:14:30.512Z,125.57
2023-12-31T19:17:40.034Z,95.30
2023-12-31T19:20:46.758Z,108.23
2023-12-31T19:23:54.998Z,225.90
2023-12-31T19:27:02.316Z,166.13
2023-12-31T19:30:10.717Z,110.40
2023-12-31T19:33:18.267Z,153.00
2023-12-31T19:36:24.781Z,222.90
2023-12-31T19:39:34.561Z,148.00
2023-12-31T19:42:43.528Z,256.33
2023-12-31T19:45:50.054Z,185.47
2023-12-31T19:48:56.902Z,198.53
2023-12-31T19:52:03.928Z,198.73
2023-12-31T19:55:12.457Z,197.37
2023-12-31T19:58:18.929Z,192.67
2023-12-31T20:01:25.649Z,137.87
2023-12-31T20:04:32.869Z,140.70
2023-12-31T20:07:39.525Z,135.97
2023-12-31T20:10:47.809Z,118.53
2023-12-31T20:13:54.334Z,184.40
2023-12-31T20:17:00.990Z,183.70
2023-12-31T20:20:08.495Z,197.50
2023-12-31T20:23:15.373Z,234.73
2023-12-31T20:26:23.145Z,151.57
2023-12-31T20:29:30.072Z,107.60
2023-12-31T20:32:37.278Z,146.00
2023-12-31T20:35:43.962Z,194.60
2023-12-31T20:38:50.508Z,177.53
2023-12-31T20:41:58.553Z,190.67
2023-12-31T20:45:05.590Z,157.40
2023-12-31T20:48:12.225Z,184.03
2023-12-31T20:51:20.552Z,200.47
2023-12-31T20:54:27.142Z,120.00
2023-12-31T20:57:35.072Z,148.67
2023-12-31T21:00:42.270Z,137.30
2023-12-31T21:03:48.679Z,139.73
2023-12-31T21:06:56.551Z,153.83
2023-12-31T21:10:05.927Z,174.30
2023-12-31T21:13:15.968Z,169.63
2023-12-31T21:16:22.619Z,166.17
2023-12-31T21:19:29.085Z,165.83
2023-12-31T21:22:35.924Z,135.50
2023-12-31T21:25:45.480Z,55.50
2023-12-31T21:28:56.142Z,72.93
2023-12-31T21:32:02.742Z,52.20
2023-12-31T21:35:10.096Z,56.87
2023-12-31T21:38:17.076Z,123.80
2023-12-31T21:41:26.082Z,74.63
2023-12-31T21:44:33.659Z,69.67
2023-12-31T21:47:39.948Z,74.60
2023-12-31T21:50:46.508Z,72.90
2023-12-31T21:53:52.810Z,126.03
2023-12-31T21:57:03.401Z,76.37
2023-12-31T22:00:14.336Z,168.13
2023-12-31T22:03:22.755Z,101.23
2023-12-31T22:06:29.777Z,108.97
2023-12-31T22:09:36.322Z,278.07
2023-12-31T22:12:43.241Z,231.97
2023-12-31T22:15:51.925Z,264.30
2023-12-31T22:18:58.305Z,322.07
2023-12-31T22:22:05.006Z,295.80
2023-12-31T22:25:11.477Z,363.63
2023-12-31T22:28:17.921Z,309.87
2023-12-31T22:31:25.877Z,225.20
2023-12-31T22:34:37.639Z,172.63
2023-12-31T22:37:45.145Z,121.30
2023-12-31T22:40:51.646Z,129.63
2023-12-31T22:43:58.696Z,153.40
2023-12-31T22:47:06.455Z,140.83
2023-12-31T22:50:14.087Z,106.67
2023-12-31T22:53:20.757Z,131.17
2023-12-31T22:56:27.019Z,122.90
2023-12-31T22:59:33.547Z,87.87
2023-12-31T23:02:41.891Z,177.73
2023-12-31T23:05:48.305Z,234.07
2023-12-31T23:08:54.765Z,189.60
2023-12-31T23:12:01.458Z,174.33
2023-12-31T23:15:09.830Z,226.10
2023-12-31T23:18:17.955Z,171.97
2023-12-31T23:21:24.818Z,163.47
2023-12-31T23:24:31.148Z,158.33
2023-12-31T23:27:37.510Z,170.43
2023-12-31T23:30:43.999Z,138.97
2023-12-31T23:33:51.889Z,118.17
2023-12-31T23:37:05.064Z,90.10
2023-12-31T23:40:13.977Z,87.90
2023-12-31T23:43:20.726Z,76.97
2023-12-31T23:46:27.406Z,65.57
2023-12-31T23:49:35.512Z,65.33
2023-12-31T23:52:42.156Z,73.53
2023-12-31T23:55:48.624Z,87.67
2023-12-31T23:58:54.844Z,72.63
